sensor_id;sensor_type;location;lat;lon;timestamp;P1;durP1;ratioP1;P2;durP2;ratioP2
28960;SDS011;16068;42.896;20.868;2022-08-19T00:00:42;8.55;;;4.05;;
28960;SDS011;16068;42.896;20.868;2022-08-19T00:03:28;8.25;;;3.20;;
28960;SDS011;16068;42.896;20.868;2022-08-19T00:06:14;8.90;;;3.30;;
28960;SDS011;16068;42.896;20.868;2022-08-19T00:09:06;6.90;;;3.22;;
28960;SDS011;16068;42.896;20.868;2022-08-19T00:11:53;10.65;;;3.22;;
28960;SDS011;16068;42.896;20.868;2022-08-19T00:14:41;11.45;;;3.58;;
28960;SDS011;16068;42.896;20.868;2022-08-19T00:17:27;9.05;;;3.25;;
28960;SDS011;16068;42.896;20.868;2022-08-19T00:20:15;8.77;;;3.53;;
28960;SDS011;16068;42.896;20.868;2022-08-19T00:23:02;9.18;;;4.13;;
28960;SDS011;16068;42.896;20.868;2022-08-19T00:25:48;12.60;;;4.13;;
28960;SDS011;16068;42.896;20.868;2022-08-19T00:28:35;9.13;;;3.95;;
28960;SDS011;16068;42.896;20.868;2022-08-19T00:31:21;6.85;;;3.70;;
28960;SDS011;16068;42.896;20.868;2022-08-19T00:34:07;10.63;;;4.20;;
28960;SDS011;16068;42.896;20.868;2022-08-19T00:36:53;11.27;;;3.95;;
28960;SDS011;16068;42.896;20.868;2022-08-19T00:39:40;11.20;;;4.30;;
28960;SDS011;16068;42.896;20.868;2022-08-19T00:42:26;12.68;;;4.10;;
28960;SDS011;16068;42.896;20.868;2022-08-19T00:45:15;7.47;;;3.95;;
28960;SDS011;16068;42.896;20.868;2022-08-19T00:48:06;8.55;;;3.90;;
28960;SDS011;16068;42.896;20.868;2022-08-19T00:50:59;9.23;;;5.20;;
28960;SDS011;16068;42.896;20.868;2022-08-19T00:53:45;7.03;;;3.65;;
28960;SDS011;16068;42.896;20.868;2022-08-19T00:56:32;9.18;;;3.90;;
28960;SDS011;16068;42.896;20.868;2022-08-19T00:59:18;10.85;;;4.10;;
28960;SDS011;16068;42.896;20.868;2022-08-19T01:02:25;10.02;;;3.80;;
28960;SDS011;16068;42.896;20.868;2022-08-19T01:05:13;14.32;;;4.22;;
28960;SDS011;16068;42.896;20.868;2022-08-19T01:08:04;8.10;;;3.97;;
28960;SDS011;16068;42.896;20.868;2022-08-19T01:10:55;9.57;;;4.03;;
28960;SDS011;16068;42.896;20.868;2022-08-19T01:13:42;9.85;;;4.28;;
28960;SDS011;16068;42.896;20.868;2022-08-19T01:16:34;6.72;;;3.38;;
28960;SDS011;16068;42.896;20.868;2022-08-19T01:19:25;9.18;;;4.18;;
28960;SDS011;16068;42.896;20.868;2022-08-19T01:22:32;7.50;;;3.40;;
28960;SDS011;16068;42.896;20.868;2022-08-19T01:25:38;10.15;;;3.55;;
28960;SDS011;16068;42.896;20.868;2022-08-19T01:28:29;5.03;;;3.70;;
28960;SDS011;16068;42.896;20.868;2022-08-19T01:31:25;9.88;;;3.33;;
28960;SDS011;16068;42.896;20.868;2022-08-19T01:34:18;10.70;;;3.42;;
28960;SDS011;16068;42.896;20.868;2022-08-19T01:37:08;7.45;;;3.70;;
28960;SDS011;16068;42.896;20.868;2022-08-19T01:39:56;9.40;;;4.07;;
28960;SDS011;16068;42.896;20.868;2022-08-19T01:42:43;8.77;;;3.58;;
28960;SDS011;16068;42.896;20.868;2022-08-19T01:45:29;10.88;;;3.70;;
28960;SDS011;16068;42.896;20.868;2022-08-19T01:48:16;7.80;;;4.18;;
28960;SDS011;16068;42.896;20.868;2022-08-19T01:51:03;7.65;;;4.20;;
28960;SDS011;16068;42.896;20.868;2022-08-19T01:53:49;6.43;;;3.53;;
28960;SDS011;16068;42.896;20.868;2022-08-19T01:56:36;7.60;;;4.00;;
28960;SDS011;16068;42.896;20.868;2022-08-19T01:59:23;7.10;;;3.40;;
28960;SDS011;16068;42.896;20.868;2022-08-19T02:02:09;10.55;;;3.90;;
28960;SDS011;16068;42.896;20.868;2022-08-19T02:04:55;11.88;;;4.45;;
28960;SDS011;16068;42.896;20.868;2022-08-19T02:07:42;8.82;;;3.88;;
28960;SDS011;16068;42.896;20.868;2022-08-19T02:10:28;8.00;;;3.50;;
28960;SDS011;16068;42.896;20.868;2022-08-19T02:13:14;8.40;;;3.70;;
28960;SDS011;16068;42.896;20.868;2022-08-19T02:16:09;9.85;;;3.72;;
28960;SDS011;16068;42.896;20.868;2022-08-19T02:18:55;10.55;;;3.88;;
28960;SDS011;16068;42.896;20.868;2022-08-19T02:21:41;8.23;;;3.92;;
28960;SDS011;16068;42.896;20.868;2022-08-19T02:24:28;5.68;;;3.75;;
28960;SDS011;16068;42.896;20.868;2022-08-19T02:27:14;7.68;;;4.30;;
28960;SDS011;16068;42.896;20.868;2022-08-19T02:30:01;9.07;;;4.53;;
28960;SDS011;16068;42.896;20.868;2022-08-19T02:32:47;6.93;;;4.35;;
28960;SDS011;16068;42.896;20.868;2022-08-19T02:35:33;14.13;;;4.30;;
28960;SDS011;16068;42.896;20.868;2022-08-19T02:38:19;13.27;;;4.10;;
28960;SDS011;16068;42.896;20.868;2022-08-19T02:41:23;9.60;;;3.67;;
28960;SDS011;16068;42.896;20.868;2022-08-19T02:44:19;9.27;;;3.72;;
28960;SDS011;16068;42.896;20.868;2022-08-19T02:47:18;8.95;;;3.92;;
28960;SDS011;16068;42.896;20.868;2022-08-19T02:50:04;11.40;;;3.50;;
28960;SDS011;16068;42.896;20.868;2022-08-19T02:52:50;12.70;;;4.05;;
28960;SDS011;16068;42.896;20.868;2022-08-19T02:55:42;10.13;;;3.63;;
28960;SDS011;16068;42.896;20.868;2022-08-19T02:58:48;9.20;;;4.05;;
28960;SDS011;16068;42.896;20.868;2022-08-19T03:01:36;10.43;;;4.03;;
28960;SDS011;16068;42.896;20.868;2022-08-19T03:04:22;14.82;;;4.10;;
28960;SDS011;16068;42.896;20.868;2022-08-19T03:07:09;11.10;;;3.92;;
28960;SDS011;16068;42.896;20.868;2022-08-19T03:10:09;7.30;;;3.47;;
28960;SDS011;16068;42.896;20.868;2022-08-19T03:12:55;7.15;;;3.47;;
28960;SDS011;16068;42.896;20.868;2022-08-19T03:15:42;8.98;;;4.30;;
28960;SDS011;16068;42.896;20.868;2022-08-19T03:18:29;19.92;;;4.95;;
28960;SDS011;16068;42.896;20.868;2022-08-19T03:21:19;13.93;;;4.00;;
28960;SDS011;16068;42.896;20.868;2022-08-19T03:24:07;11.55;;;4.18;;
28960;SDS011;16068;42.896;20.868;2022-08-19T03:26:54;8.80;;;4.03;;
28960;SDS011;16068;42.896;20.868;2022-08-19T03:29:42;13.15;;;5.00;;
28960;SDS011;16068;42.896;20.868;2022-08-19T03:32:29;8.18;;;3.92;;
28960;SDS011;16068;42.896;20.868;2022-08-19T03:35:17;12.43;;;3.95;;
28960;SDS011;16068;42.896;20.868;2022-08-19T03:38:04;11.40;;;4.63;;
28960;SDS011;16068;42.896;20.868;2022-08-19T03:40:51;17.10;;;4.35;;
28960;SDS011;16068;42.896;20.868;2022-08-19T03:43:38;8.63;;;3.85;;
28960;SDS011;16068;42.896;20.868;2022-08-19T03:46:26;9.20;;;3.47;;
28960;SDS011;16068;42.896;20.868;2022-08-19T03:49:13;8.85;;;3.78;;
28960;SDS011;16068;42.896;20.868;2022-08-19T03:51:59;10.98;;;3.72;;
28960;SDS011;16068;42.896;20.868;2022-08-19T03:54:50;12.27;;;4.05;;
28960;SDS011;16068;42.896;20.868;2022-08-19T03:57:36;7.68;;;3.45;;
28960;SDS011;16068;42.896;20.868;2022-08-19T04:00:21;9.70;;;4.05;;
28960;SDS011;16068;42.896;20.868;2022-08-19T04:03:07;8.75;;;4.00;;
28960;SDS011;16068;42.896;20.868;2022-08-19T04:05:53;11.90;;;4.07;;
28960;SDS011;16068;42.896;20.868;2022-08-19T04:08:40;17.70;;;4.53;;
28960;SDS011;16068;42.896;20.868;2022-08-19T04:11:28;16.35;;;4.30;;
28960;SDS011;16068;42.896;20.868;2022-08-19T04:14:29;15.30;;;4.05;;
28960;SDS011;16068;42.896;20.868;2022-08-19T04:17:19;12.77;;;3.97;;
28960;SDS011;16068;42.896;20.868;2022-08-19T04:20:05;8.90;;;3.63;;
28960;SDS011;16068;42.896;20.868;2022-08-19T04:22:51;11.70;;;4.00;;
28960;SDS011;16068;42.896;20.868;2022-08-19T04:25:38;12.75;;;3.65;;
28960;SDS011;16068;42.896;20.868;2022-08-19T04:28:25;13.95;;;3.80;;
28960;SDS011;16068;42.896;20.868;2022-08-19T04:31:15;12.55;;;4.03;;
28960;SDS011;16068;42.896;20.868;2022-08-19T04:34:04;11.13;;;4.07;;
28960;SDS011;16068;42.896;20.868;2022-08-19T04:36:52;9.57;;;3.80;;
28960;SDS011;16068;42.896;20.868;2022-08-19T04:39:38;11.00;;;4.03;;
28960;SDS011;16068;42.896;20.868;2022-08-19T04:42:48;12.82;;;3.88;;
28960;SDS011;16068;42.896;20.868;2022-08-19T04:45:35;12.15;;;4.20;;
28960;SDS011;16068;42.896;20.868;2022-08-19T04:48:33;17.65;;;4.18;;
28960;SDS011;16068;42.896;20.868;2022-08-19T04:51:28;39.50;;;7.85;;
28960;SDS011;16068;42.896;20.868;2022-08-19T04:54:17;18.00;;;4.80;;
28960;SDS011;16068;42.896;20.868;2022-08-19T04:57:26;16.33;;;5.20;;
28960;SDS011;16068;42.896;20.868;2022-08-19T05:00:12;16.38;;;5.22;;
28960;SDS011;16068;42.896;20.868;2022-08-19T05:02:58;15.90;;;5.03;;
28960;SDS011;16068;42.896;20.868;2022-08-19T05:05:47;23.00;;;5.68;;
28960;SDS011;16068;42.896;20.868;2022-08-19T05:08:34;17.88;;;5.25;;
28960;SDS011;16068;42.896;20.868;2022-08-19T05:11:26;15.68;;;4.80;;
28960;SDS011;16068;42.896;20.868;2022-08-19T05:14:14;12.75;;;4.88;;
28960;SDS011;16068;42.896;20.868;2022-08-19T05:17:00;10.02;;;4.28;;
28960;SDS011;16068;42.896;20.868;2022-08-19T05:20:15;10.45;;;4.50;;
28960;SDS011;16068;42.896;20.868;2022-08-19T05:23:20;14.52;;;4.30;;
28960;SDS011;16068;42.896;20.868;2022-08-19T05:26:07;10.48;;;4.35;;
28960;SDS011;16068;42.896;20.868;2022-08-19T05:28:54;9.80;;;3.90;;
28960;SDS011;16068;42.896;20.868;2022-08-19T05:31:40;12.43;;;3.67;;
28960;SDS011;16068;42.896;20.868;2022-08-19T05:34:27;6.55;;;3.80;;
28960;SDS011;16068;42.896;20.868;2022-08-19T05:37:13;14.18;;;4.00;;
28960;SDS011;16068;42.896;20.868;2022-08-19T05:39:59;9.43;;;3.92;;
28960;SDS011;16068;42.896;20.868;2022-08-19T05:42:45;19.13;;;5.05;;
28960;SDS011;16068;42.896;20.868;2022-08-19T05:45:40;13.88;;;5.72;;
28960;SDS011;16068;42.896;20.868;2022-08-19T05:48:27;10.13;;;4.95;;
28960;SDS011;16068;42.896;20.868;2022-08-19T05:51:13;12.10;;;5.50;;
28960;SDS011;16068;42.896;20.868;2022-08-19T05:54:02;11.95;;;3.88;;
28960;SDS011;16068;42.896;20.868;2022-08-19T05:56:50;10.00;;;3.80;;
28960;SDS011;16068;42.896;20.868;2022-08-19T05:59:37;9.48;;;3.83;;
28960;SDS011;16068;42.896;20.868;2022-08-19T06:02:23;9.40;;;4.25;;
28960;SDS011;16068;42.896;20.868;2022-08-19T06:05:10;11.13;;;4.15;;
28960;SDS011;16068;42.896;20.868;2022-08-19T06:07:59;23.20;;;4.47;;
28960;SDS011;16068;42.896;20.868;2022-08-19T06:10:45;6.32;;;3.53;;
28960;SDS011;16068;42.896;20.868;2022-08-19T06:13:31;14.20;;;3.97;;
28960;SDS011;16068;42.896;20.868;2022-08-19T06:16:19;9.30;;;4.47;;
28960;SDS011;16068;42.896;20.868;2022-08-19T06:19:12;11.32;;;4.88;;
28960;SDS011;16068;42.896;20.868;2022-08-19T06:21:59;12.02;;;4.43;;
28960;SDS011;16068;42.896;20.868;2022-08-19T06:24:46;8.88;;;4.28;;
28960;SDS011;16068;42.896;20.868;2022-08-19T06:27:32;8.35;;;4.30;;
28960;SDS011;16068;42.896;20.868;2022-08-19T06:30:19;10.60;;;4.85;;
28960;SDS011;16068;42.896;20.868;2022-08-19T06:33:05;10.65;;;4.63;;
28960;SDS011;16068;42.896;20.868;2022-08-19T06:35:51;10.52;;;4.75;;
28960;SDS011;16068;42.896;20.868;2022-08-19T06:38:37;15.32;;;6.78;;
28960;SDS011;16068;42.896;20.868;2022-08-19T06:41:48;9.80;;;4.97;;
28960;SDS011;16068;42.896;20.868;2022-08-19T06:44:40;12.43;;;4.63;;
28960;SDS011;16068;42.896;20.868;2022-08-19T06:47:34;12.18;;;5.80;;
28960;SDS011;16068;42.896;20.868;2022-08-19T06:50:20;13.85;;;4.72;;
28960;SDS011;16068;42.896;20.868;2022-08-19T06:53:15;12.27;;;5.43;;
28960;SDS011;16068;42.896;20.868;2022-08-19T06:56:05;9.55;;;4.50;;
28960;SDS011;16068;42.896;20.868;2022-08-19T06:58:51;12.18;;;5.90;;
28960;SDS011;16068;42.896;20.868;2022-08-19T07:01:39;12.35;;;6.18;;
28960;SDS011;16068;42.896;20.868;2022-08-19T07:04:30;17.05;;;5.55;;
28960;SDS011;16068;42.896;20.868;2022-08-19T07:07:18;12.55;;;4.45;;
28960;SDS011;16068;42.896;20.868;2022-08-19T07:10:06;13.68;;;4.47;;
28960;SDS011;16068;42.896;20.868;2022-08-19T07:12:53;15.80;;;6.70;;
28960;SDS011;16068;42.896;20.868;2022-08-19T07:15:39;15.52;;;5.20;;
28960;SDS011;16068;42.896;20.868;2022-08-19T07:18:25;17.45;;;5.05;;
28960;SDS011;16068;42.896;20.868;2022-08-19T07:21:19;18.40;;;5.65;;
28960;SDS011;16068;42.896;20.868;2022-08-19T07:24:14;16.80;;;5.15;;
28960;SDS011;16068;42.896;20.868;2022-08-19T07:27:01;9.93;;;5.38;;
28960;SDS011;16068;42.896;20.868;2022-08-19T07:29:55;12.55;;;4.15;;
28960;SDS011;16068;42.896;20.868;2022-08-19T07:32:43;12.45;;;5.00;;
28960;SDS011;16068;42.896;20.868;2022-08-19T07:35:29;12.13;;;4.80;;
28960;SDS011;16068;42.896;20.868;2022-08-19T07:38:17;16.08;;;4.50;;
28960;SDS011;16068;42.896;20.868;2022-08-19T07:41:04;16.95;;;4.68;;
28960;SDS011;16068;42.896;20.868;2022-08-19T07:43:50;10.27;;;4.75;;
28960;SDS011;16068;42.896;20.868;2022-08-19T07:46:40;20.17;;;5.20;;
28960;SDS011;16068;42.896;20.868;2022-08-19T07:49:33;11.52;;;4.55;;
28960;SDS011;16068;42.896;20.868;2022-08-19T07:52:19;17.45;;;6.13;;
28960;SDS011;16068;42.896;20.868;2022-08-19T07:55:06;20.45;;;6.95;;
28960;SDS011;16068;42.896;20.868;2022-08-19T07:58:33;14.85;;;4.88;;
28960;SDS011;16068;42.896;20.868;2022-08-19T08:01:24;43.85;;;6.28;;
28960;SDS011;16068;42.896;20.868;2022-08-19T08:04:12;34.95;;;5.97;;
28960;SDS011;16068;42.896;20.868;2022-08-19T08:07:17;28.85;;;5.63;;
28960;SDS011;16068;42.896;20.868;2022-08-19T08:10:31;13.73;;;5.80;;
28960;SDS011;16068;42.896;20.868;2022-08-19T08:13:18;7.25;;;4.60;;
28960;SDS011;16068;42.896;20.868;2022-08-19T08:16:04;9.10;;;4.95;;
28960;SDS011;16068;42.896;20.868;2022-08-19T08:18:54;6.78;;;4.35;;
28960;SDS011;16068;42.896;20.868;2022-08-19T08:21:40;54.90;;;27.67;;
28960;SDS011;16068;42.896;20.868;2022-08-19T08:24:28;47.47;;;14.93;;
28960;SDS011;16068;42.896;20.868;2022-08-19T08:27:16;61.92;;;9.60;;
28960;SDS011;16068;42.896;20.868;2022-08-19T08:30:30;31.48;;;7.03;;
28960;SDS011;16068;42.896;20.868;2022-08-19T08:33:23;12.23;;;5.90;;
28960;SDS011;16068;42.896;20.868;2022-08-19T08:36:25;10.65;;;5.65;;
28960;SDS011;16068;42.896;20.868;2022-08-19T08:39:15;16.33;;;5.85;;
28960;SDS011;16068;42.896;20.868;2022-08-19T08:42:35;13.52;;;5.70;;
28960;SDS011;16068;42.896;20.868;2022-08-19T08:45:36;13.63;;;5.30;;
28960;SDS011;16068;42.896;20.868;2022-08-19T08:48:35;14.13;;;5.05;;
28960;SDS011;16068;42.896;20.868;2022-08-19T08:51:44;15.77;;;7.30;;
28960;SDS011;16068;42.896;20.868;2022-08-19T08:54:55;14.50;;;5.95;;
28960;SDS011;16068;42.896;20.868;2022-08-19T09:00:42;14.60;;;6.05;;
28960;SDS011;16068;42.896;20.868;2022-08-19T09:03:32;15.13;;;5.78;;
28960;SDS011;16068;42.896;20.868;2022-08-19T09:06:23;19.92;;;7.68;;
28960;SDS011;16068;42.896;20.868;2022-08-19T09:09:22;12.57;;;6.60;;
28960;SDS011;16068;42.896;20.868;2022-08-19T09:16:02;15.98;;;6.50;;
28960;SDS011;16068;42.896;20.868;2022-08-19T09:19:25;15.00;;;5.70;;
28960;SDS011;16068;42.896;20.868;2022-08-19T09:22:15;17.38;;;6.00;;
28960;SDS011;16068;42.896;20.868;2022-08-19T09:25:25;13.23;;;5.93;;
28960;SDS011;16068;42.896;20.868;2022-08-19T09:28:16;16.10;;;6.60;;
28960;SDS011;16068;42.896;20.868;2022-08-19T09:31:23;15.20;;;5.78;;
28960;SDS011;16068;42.896;20.868;2022-08-19T09:34:15;12.60;;;5.35;;
28960;SDS011;16068;42.896;20.868;2022-08-19T09:37:06;14.40;;;5.95;;
28960;SDS011;16068;42.896;20.868;2022-08-19T09:39:53;16.20;;;5.88;;
28960;SDS011;16068;42.896;20.868;2022-08-19T09:42:39;15.27;;;5.88;;
28960;SDS011;16068;42.896;20.868;2022-08-19T09:45:49;13.52;;;5.55;;
28960;SDS011;16068;42.896;20.868;2022-08-19T09:48:36;17.05;;;5.60;;
28960;SDS011;16068;42.896;20.868;2022-08-19T09:51:23;16.48;;;6.70;;
28960;SDS011;16068;42.896;20.868;2022-08-19T09:54:12;15.95;;;6.57;;
28960;SDS011;16068;42.896;20.868;2022-08-19T09:57:08;15.98;;;6.47;;
28960;SDS011;16068;42.896;20.868;2022-08-19T09:59:55;12.90;;;5.53;;
28960;SDS011;16068;42.896;20.868;2022-08-19T10:02:41;10.35;;;5.20;;
28960;SDS011;16068;42.896;20.868;2022-08-19T10:05:29;9.18;;;5.80;;
28960;SDS011;16068;42.896;20.868;2022-08-19T10:08:39;13.25;;;5.70;;
28960;SDS011;16068;42.896;20.868;2022-08-19T10:11:39;14.15;;;4.82;;
28960;SDS011;16068;42.896;20.868;2022-08-19T10:14:39;12.98;;;5.45;;
28960;SDS011;16068;42.896;20.868;2022-08-19T10:17:25;10.23;;;5.65;;
28960;SDS011;16068;42.896;20.868;2022-08-19T10:20:21;12.65;;;5.68;;
28960;SDS011;16068;42.896;20.868;2022-08-19T10:23:08;16.20;;;5.63;;
28960;SDS011;16068;42.896;20.868;2022-08-19T10:25:54;13.55;;;5.80;;
28960;SDS011;16068;42.896;20.868;2022-08-19T10:28:45;12.18;;;5.75;;
28960;SDS011;16068;42.896;20.868;2022-08-19T10:31:32;12.05;;;5.70;;
28960;SDS011;16068;42.896;20.868;2022-08-19T10:34:39;17.70;;;5.78;;
28960;SDS011;16068;42.896;20.868;2022-08-19T10:37:35;11.63;;;5.68;;
28960;SDS011;16068;42.896;20.868;2022-08-19T10:40:35;16.92;;;5.45;;
28960;SDS011;16068;42.896;20.868;2022-08-19T10:43:21;13.77;;;5.38;;
28960;SDS011;16068;42.896;20.868;2022-08-19T10:46:12;18.98;;;6.00;;
28960;SDS011;16068;42.896;20.868;2022-08-19T10:49:02;14.32;;;5.07;;
28960;SDS011;16068;42.896;20.868;2022-08-19T10:51:49;16.80;;;6.10;;
28960;SDS011;16068;42.896;20.868;2022-08-19T10:55:21;17.25;;;5.50;;
28960;SDS011;16068;42.896;20.868;2022-08-19T10:59:13;24.83;;;5.93;;
28960;SDS011;16068;42.896;20.868;2022-08-19T11:02:00;10.77;;;5.40;;
28960;SDS011;16068;42.896;20.868;2022-08-19T11:05:00;21.50;;;5.68;;
28960;SDS011;16068;42.896;20.868;2022-08-19T11:07:57;24.58;;;5.30;;
28960;SDS011;16068;42.896;20.868;2022-08-19T11:10:47;18.77;;;5.00;;
28960;SDS011;16068;42.896;20.868;2022-08-19T11:13:36;14.48;;;5.60;;
28960;SDS011;16068;42.896;20.868;2022-08-19T11:16:24;13.00;;;5.43;;
28960;SDS011;16068;42.896;20.868;2022-08-19T11:19:15;13.65;;;5.13;;
28960;SDS011;16068;42.896;20.868;2022-08-19T11:22:07;13.45;;;5.90;;
28960;SDS011;16068;42.896;20.868;2022-08-19T11:24:59;16.00;;;5.13;;
28960;SDS011;16068;42.896;20.868;2022-08-19T11:27:45;10.95;;;5.15;;
28960;SDS011;16068;42.896;20.868;2022-08-19T11:30:32;14.93;;;6.15;;
28960;SDS011;16068;42.896;20.868;2022-08-19T11:33:19;15.20;;;5.72;;
28960;SDS011;16068;42.896;20.868;2022-08-19T11:36:05;13.68;;;5.28;;
28960;SDS011;16068;42.896;20.868;2022-08-19T11:38:51;15.25;;;5.97;;
28960;SDS011;16068;42.896;20.868;2022-08-19T11:41:38;18.80;;;6.32;;
28960;SDS011;16068;42.896;20.868;2022-08-19T11:44:26;17.95;;;6.43;;
28960;SDS011;16068;42.896;20.868;2022-08-19T11:47:22;16.27;;;6.13;;
28960;SDS011;16068;42.896;20.868;2022-08-19T11:50:09;12.70;;;5.72;;
28960;SDS011;16068;42.896;20.868;2022-08-19T11:52:55;13.82;;;5.53;;
28960;SDS011;16068;42.896;20.868;2022-08-19T11:55:44;14.15;;;5.40;;
28960;SDS011;16068;42.896;20.868;2022-08-19T11:58:30;15.63;;;5.68;;
28960;SDS011;16068;42.896;20.868;2022-08-19T12:01:17;14.55;;;5.90;;
28960;SDS011;16068;42.896;20.868;2022-08-19T12:04:04;12.43;;;5.05;;
28960;SDS011;16068;42.896;20.868;2022-08-19T12:06:50;25.95;;;5.20;;
28960;SDS011;16068;42.896;20.868;2022-08-19T12:09:36;13.60;;;5.05;;
28960;SDS011;16068;42.896;20.868;2022-08-19T12:12:27;19.77;;;6.25;;
28960;SDS011;16068;42.896;20.868;2022-08-19T12:15:13;13.88;;;5.53;;
28960;SDS011;16068;42.896;20.868;2022-08-19T12:17:59;11.80;;;5.63;;
28960;SDS011;16068;42.896;20.868;2022-08-19T12:20:47;16.08;;;5.10;;
28960;SDS011;16068;42.896;20.868;2022-08-19T12:23:36;17.77;;;5.78;;
28960;SDS011;16068;42.896;20.868;2022-08-19T12:26:23;13.05;;;5.25;;
28960;SDS011;16068;42.896;20.868;2022-08-19T12:29:11;18.30;;;5.50;;
28960;SDS011;16068;42.896;20.868;2022-08-19T12:31:57;14.38;;;5.43;;
28960;SDS011;16068;42.896;20.868;2022-08-19T12:34:48;17.30;;;5.53;;
28960;SDS011;16068;42.896;20.868;2022-08-19T12:37:33;14.63;;;5.18;;
28960;SDS011;16068;42.896;20.868;2022-08-19T12:40:20;17.05;;;5.20;;
28960;SDS011;16068;42.896;20.868;2022-08-19T12:43:06;16.75;;;6.60;;
28960;SDS011;16068;42.896;20.868;2022-08-19T12:45:53;12.38;;;5.78;;
28960;SDS011;16068;42.896;20.868;2022-08-19T12:48:41;19.92;;;6.50;;
28960;SDS011;16068;42.896;20.868;2022-08-19T12:51:27;15.48;;;6.35;;
28960;SDS011;16068;42.896;20.868;2022-08-19T12:54:13;14.07;;;6.20;;
28960;SDS011;16068;42.896;20.868;2022-08-19T12:57:00;18.85;;;5.63;;
28960;SDS011;16068;42.896;20.868;2022-08-19T12:59:46;15.85;;;5.20;;
28960;SDS011;16068;42.896;20.868;2022-08-19T14:15:46;16.77;;;5.10;;
28960;SDS011;16068;42.896;20.868;2022-08-19T14:18:33;18.98;;;4.78;;
28960;SDS011;16068;42.896;20.868;2022-08-19T14:21:20;12.77;;;5.05;;
28960;SDS011;16068;42.896;20.868;2022-08-19T14:24:08;16.20;;;4.95;;
28960;SDS011;16068;42.896;20.868;2022-08-19T14:26:54;15.13;;;4.85;;
28960;SDS011;16068;42.896;20.868;2022-08-19T14:29:40;11.68;;;4.32;;
28960;SDS011;16068;42.896;20.868;2022-08-19T14:32:25;17.95;;;4.72;;
28960;SDS011;16068;42.896;20.868;2022-08-19T14:35:12;16.35;;;5.25;;
28960;SDS011;16068;42.896;20.868;2022-08-19T14:38:01;14.15;;;4.68;;
28960;SDS011;16068;42.896;20.868;2022-08-19T14:40:48;24.15;;;5.30;;
28960;SDS011;16068;42.896;20.868;2022-08-19T14:43:34;24.75;;;5.25;;
28960;SDS011;16068;42.896;20.868;2022-08-19T14:46:23;19.95;;;5.38;;
28960;SDS011;16068;42.896;20.868;2022-08-19T14:49:14;14.52;;;4.70;;
28960;SDS011;16068;42.896;20.868;2022-08-19T14:52:03;16.58;;;4.72;;
28960;SDS011;16068;42.896;20.868;2022-08-19T14:54:49;12.52;;;5.03;;
28960;SDS011;16068;42.896;20.868;2022-08-19T14:57:35;18.15;;;6.07;;
28960;SDS011;16068;42.896;20.868;2022-08-19T15:00:22;22.33;;;5.80;;
28960;SDS011;16068;42.896;20.868;2022-08-19T15:03:08;11.60;;;4.53;;
28960;SDS011;16068;42.896;20.868;2022-08-19T15:05:54;20.30;;;5.60;;
28960;SDS011;16068;42.896;20.868;2022-08-19T15:08:42;17.17;;;5.40;;
28960;SDS011;16068;42.896;20.868;2022-08-19T15:11:29;17.58;;;5.60;;
28960;SDS011;16068;42.896;20.868;2022-08-19T15:14:17;15.15;;;5.07;;
28960;SDS011;16068;42.896;20.868;2022-08-19T15:17:04;13.45;;;5.05;;
28960;SDS011;16068;42.896;20.868;2022-08-19T15:19:50;16.77;;;5.65;;
28960;SDS011;16068;42.896;20.868;2022-08-19T15:22:37;16.60;;;6.03;;
28960;SDS011;16068;42.896;20.868;2022-08-19T15:25:23;14.57;;;6.40;;
28960;SDS011;16068;42.896;20.868;2022-08-19T15:28:10;16.75;;;5.50;;
28960;SDS011;16068;42.896;20.868;2022-08-19T15:31:00;14.07;;;5.55;;
28960;SDS011;16068;42.896;20.868;2022-08-19T15:33:46;20.35;;;6.25;;
28960;SDS011;16068;42.896;20.868;2022-08-19T15:36:36;26.15;;;6.25;;
28960;SDS011;16068;42.896;20.868;2022-08-19T15:39:22;24.42;;;5.68;;
28960;SDS011;16068;42.896;20.868;2022-08-19T15:42:08;12.20;;;5.28;;
28960;SDS011;16068;42.896;20.868;2022-08-19T15:44:53;17.52;;;5.65;;
28960;SDS011;16068;42.896;20.868;2022-08-19T15:47:45;20.15;;;5.80;;
28960;SDS011;16068;42.896;20.868;2022-08-19T15:50:31;15.60;;;5.70;;
28960;SDS011;16068;42.896;20.868;2022-08-19T15:53:17;24.58;;;7.13;;
28960;SDS011;16068;42.896;20.868;2022-08-19T15:56:03;20.92;;;6.10;;
28960;SDS011;16068;42.896;20.868;2022-08-19T15:58:49;19.83;;;6.03;;
28960;SDS011;16068;42.896;20.868;2022-08-19T16:01:54;17.02;;;5.72;;
28960;SDS011;16068;42.896;20.868;2022-08-19T16:05:01;19.88;;;6.15;;
28960;SDS011;16068;42.896;20.868;2022-08-19T16:08:07;17.98;;;6.30;;
28960;SDS011;16068;42.896;20.868;2022-08-19T16:10:54;15.27;;;6.80;;
28960;SDS011;16068;42.896;20.868;2022-08-19T16:13:40;26.27;;;6.78;;
28960;SDS011;16068;42.896;20.868;2022-08-19T16:16:28;27.25;;;7.68;;
28960;SDS011;16068;42.896;20.868;2022-08-19T16:19:19;19.35;;;6.97;;
28960;SDS011;16068;42.896;20.868;2022-08-19T16:22:05;30.58;;;7.07;;
28960;SDS011;16068;42.896;20.868;2022-08-19T16:24:51;25.10;;;7.80;;
28960;SDS011;16068;42.896;20.868;2022-08-19T16:27:37;32.75;;;8.05;;
28960;SDS011;16068;42.896;20.868;2022-08-19T16:30:23;32.83;;;7.97;;
28960;SDS011;16068;42.896;20.868;2022-08-19T16:33:09;28.02;;;7.80;;
28960;SDS011;16068;42.896;20.868;2022-08-19T16:35:55;27.33;;;7.65;;
28960;SDS011;16068;42.896;20.868;2022-08-19T16:38:53;25.02;;;7.03;;
28960;SDS011;16068;42.896;20.868;2022-08-19T16:41:40;25.13;;;7.40;;
28960;SDS011;16068;42.896;20.868;2022-08-19T16:44:26;21.98;;;6.60;;
28960;SDS011;16068;42.896;20.868;2022-08-19T16:47:14;29.85;;;7.38;;
28960;SDS011;16068;42.896;20.868;2022-08-19T16:50:02;19.83;;;6.50;;
28960;SDS011;16068;42.896;20.868;2022-08-19T16:52:52;21.45;;;6.65;;
28960;SDS011;16068;42.896;20.868;2022-08-19T16:55:38;22.30;;;6.45;;
28960;SDS011;16068;42.896;20.868;2022-08-19T16:58:24;28.80;;;15.68;;
28960;SDS011;16068;42.896;20.868;2022-08-19T17:01:12;42.00;;;18.55;;
28960;SDS011;16068;42.896;20.868;2022-08-19T17:03:59;25.70;;;11.95;;
28960;SDS011;16068;42.896;20.868;2022-08-19T17:06:44;31.27;;;15.20;;
28960;SDS011;16068;42.896;20.868;2022-08-19T17:09:31;33.83;;;10.18;;
28960;SDS011;16068;42.896;20.868;2022-08-19T17:12:16;33.72;;;11.75;;
28960;SDS011;16068;42.896;20.868;2022-08-19T17:15:03;30.25;;;11.07;;
28960;SDS011;16068;42.896;20.868;2022-08-19T17:17:58;26.55;;;8.98;;
28960;SDS011;16068;42.896;20.868;2022-08-19T17:20:45;24.02;;;7.80;;
28960;SDS011;16068;42.896;20.868;2022-08-19T17:23:31;51.63;;;11.90;;
28960;SDS011;16068;42.896;20.868;2022-08-19T17:26:28;44.58;;;9.25;;
28960;SDS011;16068;42.896;20.868;2022-08-19T17:29:14;27.13;;;7.10;;
28960;SDS011;16068;42.896;20.868;2022-08-19T17:32:01;32.50;;;7.18;;
28960;SDS011;16068;42.896;20.868;2022-08-19T17:34:47;39.92;;;7.13;;
28960;SDS011;16068;42.896;20.868;2022-08-19T17:37:34;63.55;;;9.88;;
28960;SDS011;16068;42.896;20.868;2022-08-19T17:40:20;50.95;;;7.57;;
28960;SDS011;16068;42.896;20.868;2022-08-19T17:43:09;52.05;;;7.22;;
28960;SDS011;16068;42.896;20.868;2022-08-19T17:45:57;27.13;;;6.82;;
28960;SDS011;16068;42.896;20.868;2022-08-19T17:48:49;35.95;;;6.68;;
28960;SDS011;16068;42.896;20.868;2022-08-19T17:51:40;33.80;;;5.72;;
28960;SDS011;16068;42.896;20.868;2022-08-19T17:54:27;29.65;;;6.50;;
28960;SDS011;16068;42.896;20.868;2022-08-19T17:57:18;31.30;;;6.28;;